Terminal Aerodrome Forecast
Issued by NWS Grand Forks, ND

Home | Current Version | Previous Version | Text Only | Print | Product List | Glossary On
Versions: 1 2 3 4 5 6 7 8 9 10 11 12 13 14 15
000
FTUS43 KFGF 200544
TAFGFK
TAF
KGFK 200544Z 2006/2106 36013KT 5SM -SN BKN040 OVC080
      TEMPO 2006/2008 2SM -SN OVC025
     FM200800 36014KT 1SM -SN OVC035
     FM201200 35012KT P6SM OVC035
     FM201500 33012KT 3SM -SN OVC035
     FM201900 33012KT P6SM OVC030
     FM210000 28007KT P6SM BKN060=

USA.gov is the U.S. government's official web portal to all federal, state and local government web resources and services.